LIPZ/VCE METAR and TAF weather

Enter ICAO airport designator
Station Type Date Time Source
LIPZ METAR 2020/06/03 22:20 UTC NOAA

LIPZ 032220Z 10004KT 9999 FEW056 19/15 Q1005 NOSIG


Station Type Date Time Source
LIPZ Decoded METAR 2020/06/03 22:20 UTC NOAA

Venezia / Tessera, Italy (LIPZ) 45-30N 012-20E 6M
Jun 03, 2020 - 06:20 PM EDT / 2020.06.03 2220 UTC
Wind: from the E (100 degrees) at 5 MPH (4 KT):0
Visibility: greater than 7 mile(s):0
Sky conditions: mostly clear
Temperature: 66 F (19 C)
Dew Point: 59 F (15 C)
Relative Humidity: 77%
Pressure (altimeter): 29.68 in. Hg (1005 hPa)
ob: LIPZ 032220Z 10004KT 9999 FEW056 19/15 Q1005 NOSIG
cycle: 22

Station Type Date Time Source
LIPZ TAF 2020/06/03 18:21 UTC NOAA

TAF LIPZ 031700Z 0318/0424 15010KT 9999 SCT060
BECMG 0318/0320 22008KT
TEMPO 0318/0322 4000 TSRA
BECMG 0406/0408 16013KT
BECMG 0409/0411 4000 RA

Example: see airport list